sensor_id;sensor_type;location;lat;lon;timestamp;pressure;altitude;pressure_sealevel;temperature
76583;BMP280;65462;52.148;7.940;2023-04-06T00:01:13;101056.94;;;3.73
76583;BMP280;65462;52.148;7.940;2023-04-06T00:03:38;101050.91;;;3.72
76583;BMP280;65462;52.148;7.940;2023-04-06T00:06:04;101046.00;;;3.71
76583;BMP280;65462;52.148;7.940;2023-04-06T00:08:29;101029.47;;;3.55
76583;BMP280;65462;52.148;7.940;2023-04-06T00:10:55;101031.56;;;3.58
76583;BMP280;65462;52.148;7.940;2023-04-06T00:13:20;101053.81;;;3.71
76583;BMP280;65462;52.148;7.940;2023-04-06T00:15:45;101037.03;;;3.62
76583;BMP280;65462;52.148;7.940;2023-04-06T00:18:10;101003.28;;;3.35
76583;BMP280;65462;52.148;7.940;2023-04-06T00:20:36;101039.69;;;3.67
76583;BMP280;65462;52.148;7.940;2023-04-06T00:23:01;101041.78;;;3.65
76583;BMP280;65462;52.148;7.940;2023-04-06T00:25:26;101038.91;;;3.61
76583;BMP280;65462;52.148;7.940;2023-04-06T00:27:52;101023.41;;;3.50
76583;BMP280;65462;52.148;7.940;2023-04-06T00:30:17;101024.47;;;3.44
76583;BMP280;65462;52.148;7.940;2023-04-06T00:32:42;100986.53;;;3.21
76583;BMP280;65462;52.148;7.940;2023-04-06T00:35:08;101021.84;;;3.44
76583;BMP280;65462;52.148;7.940;2023-04-06T00:37:33;101021.56;;;3.40
76583;BMP280;65462;52.148;7.940;2023-04-06T00:39:59;101007.44;;;3.31
76583;BMP280;65462;52.148;7.940;2023-04-06T00:42:25;101016.06;;;3.37
76583;BMP280;65462;52.148;7.940;2023-04-06T00:44:52;101001.16;;;3.27
76583;BMP280;65462;52.148;7.940;2023-04-06T00:47:18;101009.50;;;3.24
76583;BMP280;65462;52.148;7.940;2023-04-06T00:49:43;100998.00;;;3.15
76583;BMP280;65462;52.148;7.940;2023-04-06T00:52:09;101002.47;;;3.19
76583;BMP280;65462;52.148;7.940;2023-04-06T00:54:34;101013.91;;;3.23
76583;BMP280;65462;52.148;7.940;2023-04-06T00:56:59;100989.88;;;3.11
76583;BMP280;65462;52.148;7.940;2023-04-06T00:59:25;100995.91;;;3.17
76583;BMP280;65462;52.148;7.940;2023-04-06T01:01:51;100978.13;;;3.09
76583;BMP280;65462;52.148;7.940;2023-04-06T01:04:16;100998.28;;;3.18
76583;BMP280;65462;52.148;7.940;2023-04-06T01:06:42;100989.38;;;3.14
76583;BMP280;65462;52.148;7.940;2023-04-06T01:09:07;100965.25;;;2.97
76583;BMP280;65462;52.148;7.940;2023-04-06T01:11:32;100966.56;;;2.95
76583;BMP280;65462;52.148;7.940;2023-04-06T01:13:58;100991.97;;;3.14
76583;BMP280;65462;52.148;7.940;2023-04-06T01:16:23;100987.78;;;3.13
76583;BMP280;65462;52.148;7.940;2023-04-06T01:18:49;100994.84;;;3.13
76583;BMP280;65462;52.148;7.940;2023-04-06T01:21:15;100997.19;;;3.09
76583;BMP280;65462;52.148;7.940;2023-04-06T01:23:44;100974.16;;;2.96
76583;BMP280;65462;52.148;7.940;2023-04-06T01:26:10;100995.59;;;3.03
76583;BMP280;65462;52.148;7.940;2023-04-06T01:28:36;100973.38;;;2.91
76583;BMP280;65462;52.148;7.940;2023-04-06T01:31:02;100965.72;;;2.79
76583;BMP280;65462;52.148;7.940;2023-04-06T01:33:28;100971.22;;;2.83
76583;BMP280;65462;52.148;7.940;2023-04-06T01:35:53;100989.03;;;2.91
76583;BMP280;65462;52.148;7.940;2023-04-06T01:38:18;100964.94;;;2.79
76583;BMP280;65462;52.148;7.940;2023-04-06T01:40:43;100973.47;;;2.69
76583;BMP280;65462;52.148;7.940;2023-04-06T01:43:09;100958.88;;;2.68
76583;BMP280;65462;52.148;7.940;2023-04-06T01:45:35;100947.59;;;2.62
76583;BMP280;65462;52.148;7.940;2023-04-06T01:48:00;100943.19;;;2.63
76583;BMP280;65462;52.148;7.940;2023-04-06T01:50:25;100968.59;;;2.78
76583;BMP280;65462;52.148;7.940;2023-04-06T01:52:51;100972.47;;;2.75
76583;BMP280;65462;52.148;7.940;2023-04-06T01:55:16;100933.28;;;2.60
76583;BMP280;65462;52.148;7.940;2023-04-06T01:57:41;100948.41;;;2.63
76583;BMP280;65462;52.148;7.940;2023-04-06T02:00:07;100958.63;;;2.69
76583;BMP280;65462;52.148;7.940;2023-04-06T02:02:32;100964.09;;;2.68
76583;BMP280;65462;52.148;7.940;2023-04-06T02:04:58;100941.84;;;2.55
76583;BMP280;65462;52.148;7.940;2023-04-06T02:07:23;100933.72;;;2.47
76583;BMP280;65462;52.148;7.940;2023-04-06T02:09:48;100954.16;;;2.60
76583;BMP280;65462;52.148;7.940;2023-04-06T02:12:13;100922.72;;;2.40
76583;BMP280;65462;52.148;7.940;2023-04-06T02:14:39;100960.66;;;2.62
76583;BMP280;65462;52.148;7.940;2023-04-06T02:17:04;100930.53;;;2.40
76583;BMP280;65462;52.148;7.940;2023-04-06T02:19:30;100931.31;;;2.40
76583;BMP280;65462;52.148;7.940;2023-04-06T02:21:55;100916.34;;;2.21
76583;BMP280;65462;52.148;7.940;2023-04-06T02:24:20;100944.06;;;2.37
76583;BMP280;65462;52.148;7.940;2023-04-06T02:26:45;100956.59;;;2.40
76583;BMP280;65462;52.148;7.940;2023-04-06T02:29:11;100933.84;;;2.30
76583;BMP280;65462;52.148;7.940;2023-04-06T02:31:36;100937.50;;;2.29
76583;BMP280;65462;52.148;7.940;2023-04-06T02:34:01;100933.03;;;2.20
76583;BMP280;65462;52.148;7.940;2023-04-06T02:36:27;100945.66;;;2.38
76583;BMP280;65462;52.148;7.940;2023-04-06T02:38:52;100942.22;;;2.32
76583;BMP280;65462;52.148;7.940;2023-04-06T02:41:17;100945.16;;;2.41
76583;BMP280;65462;52.148;7.940;2023-04-06T02:43:43;100934.91;;;2.29
76583;BMP280;65462;52.148;7.940;2023-04-06T02:46:08;100926.81;;;2.26
76583;BMP280;65462;52.148;7.940;2023-04-06T02:48:34;100952.97;;;2.41
76583;BMP280;65462;52.148;7.940;2023-04-06T02:51:02;100930.22;;;2.26
76583;BMP280;65462;52.148;7.940;2023-04-06T02:53:27;100941.44;;;2.32
76583;BMP280;65462;52.148;7.940;2023-04-06T02:55:52;100952.16;;;2.35
76583;BMP280;65462;52.148;7.940;2023-04-06T02:58:18;100943.47;;;2.30
76583;BMP280;65462;52.148;7.940;2023-04-06T03:00:43;100938.56;;;2.28
76583;BMP280;65462;52.148;7.940;2023-04-06T03:03:08;100934.66;;;2.26
76583;BMP280;65462;52.148;7.940;2023-04-06T03:05:34;100937.50;;;2.29
76583;BMP280;65462;52.148;7.940;2023-04-06T03:07:59;100923.03;;;2.06
76583;BMP280;65462;52.148;7.940;2023-04-06T03:10:25;100926.25;;;2.18
76583;BMP280;65462;52.148;7.940;2023-04-06T03:12:50;100913.91;;;2.09
76583;BMP280;65462;52.148;7.940;2023-04-06T03:15:15;100917.31;;;2.09
76583;BMP280;65462;52.148;7.940;2023-04-06T03:17:40;100939.00;;;2.20
76583;BMP280;65462;52.148;7.940;2023-04-06T03:20:06;100935.09;;;2.17
76583;BMP280;65462;52.148;7.940;2023-04-06T03:22:32;100928.56;;;2.15
76583;BMP280;65462;52.148;7.940;2023-04-06T03:24:57;100929.06;;;2.12
76583;BMP280;65462;52.148;7.940;2023-04-06T03:27:22;100929.28;;;2.10
76583;BMP280;65462;52.148;7.940;2023-04-06T03:29:47;100899.19;;;1.93
76583;BMP280;65462;52.148;7.940;2023-04-06T03:32:13;100933.97;;;2.08
76583;BMP280;65462;52.148;7.940;2023-04-06T03:34:38;100929.00;;;2.07
76583;BMP280;65462;52.148;7.940;2023-04-06T03:37:07;100928.22;;;2.06
76583;BMP280;65462;52.148;7.940;2023-04-06T03:39:32;100935.75;;;2.03
76583;BMP280;65462;52.148;7.940;2023-04-06T03:41:57;100913.56;;;2.00
76583;BMP280;65462;52.148;7.940;2023-04-06T03:44:23;100933.47;;;2.11
76583;BMP280;65462;52.148;7.940;2023-04-06T03:46:48;100927.19;;;2.07
76583;BMP280;65462;52.148;7.940;2023-04-06T03:49:13;100938.47;;;2.18
76583;BMP280;65462;52.148;7.940;2023-04-06T03:51:39;100932.38;;;2.07
76583;BMP280;65462;52.148;7.940;2023-04-06T03:54:04;100928.53;;;2.10
76583;BMP280;65462;52.148;7.940;2023-04-06T03:56:30;100912.50;;;1.96
76583;BMP280;65462;52.148;7.940;2023-04-06T03:58:55;100941.56;;;2.10
76583;BMP280;65462;52.148;7.940;2023-04-06T04:01:20;100937.38;;;2.09
76583;BMP280;65462;52.148;7.940;2023-04-06T04:03:46;100911.94;;;1.94
76583;BMP280;65462;52.148;7.940;2023-04-06T04:06:11;100915.63;;;1.93
76583;BMP280;65462;52.148;7.940;2023-04-06T04:08:36;100913.53;;;1.95
76583;BMP280;65462;52.148;7.940;2023-04-06T04:11:02;100920.84;;;1.98
76583;BMP280;65462;52.148;7.940;2023-04-06T04:13:27;100935.56;;;2.09
76583;BMP280;65462;52.148;7.940;2023-04-06T04:15:52;100921.88;;;1.97
76583;BMP280;65462;52.148;7.940;2023-04-06T04:18:18;100903.31;;;1.84
76583;BMP280;65462;52.148;7.940;2023-04-06T04:20:44;100935.19;;;2.01
76583;BMP280;65462;52.148;7.940;2023-04-06T04:23:09;100907.16;;;1.76
76583;BMP280;65462;52.148;7.940;2023-04-06T04:25:35;100932.50;;;1.91
76583;BMP280;65462;52.148;7.940;2023-04-06T04:28:00;100921.25;;;1.80
76583;BMP280;65462;52.148;7.940;2023-04-06T04:30:26;100901.34;;;1.69
76583;BMP280;65462;52.148;7.940;2023-04-06T04:32:51;100913.63;;;1.74
76583;BMP280;65462;52.148;7.940;2023-04-06T04:35:17;100944.25;;;1.93
76583;BMP280;65462;52.148;7.940;2023-04-06T04:37:42;100923.34;;;1.83
76583;BMP280;65462;52.148;7.940;2023-04-06T04:40:08;100943.41;;;1.88
76583;BMP280;65462;52.148;7.940;2023-04-06T04:42:34;100930.66;;;1.86
76583;BMP280;65462;52.148;7.940;2023-04-06T04:44:59;100940.28;;;1.86
76583;BMP280;65462;52.148;7.940;2023-04-06T04:47:24;100924.38;;;1.82
76583;BMP280;65462;52.148;7.940;2023-04-06T04:49:50;100912.31;;;1.71
76583;BMP280;65462;52.148;7.940;2023-04-06T04:52:15;100903.59;;;1.60
76583;BMP280;65462;52.148;7.940;2023-04-06T04:54:40;100900.69;;;1.57
76583;BMP280;65462;52.148;7.940;2023-04-06T04:57:06;100918.78;;;1.69
76583;BMP280;65462;52.148;7.940;2023-04-06T04:59:31;100927.94;;;1.71
76583;BMP280;65462;52.148;7.940;2023-04-06T05:01:57;100919.56;;;1.69
76583;BMP280;65462;52.148;7.940;2023-04-06T05:04:22;100944.19;;;1.83
76583;BMP280;65462;52.148;7.940;2023-04-06T05:06:48;100923.56;;;1.77
76583;BMP280;65462;52.148;7.940;2023-04-06T05:09:14;100911.03;;;1.74
76583;BMP280;65462;52.148;7.940;2023-04-06T05:11:39;100883.78;;;1.54
76583;BMP280;65462;52.148;7.940;2023-04-06T05:14:04;100898.09;;;1.57
76583;BMP280;65462;52.148;7.940;2023-04-06T05:16:31;100906.22;;;1.60
76583;BMP280;65462;52.148;7.940;2023-04-06T05:18:56;100883.38;;;1.41
76583;BMP280;65462;52.148;7.940;2023-04-06T05:21:22;100917.44;;;1.66
76583;BMP280;65462;52.148;7.940;2023-04-06T05:23:47;100894.66;;;1.51
76583;BMP280;65462;52.148;7.940;2023-04-06T05:26:12;100917.16;;;1.62
76583;BMP280;65462;52.148;7.940;2023-04-06T05:28:38;100879.38;;;1.33
76583;BMP280;65462;52.148;7.940;2023-04-06T05:31:03;100878.34;;;1.34
76583;BMP280;65462;52.148;7.940;2023-04-06T05:33:29;100881.53;;;1.41
76583;BMP280;65462;52.148;7.940;2023-04-06T05:35:54;100938.91;;;1.78
76583;BMP280;65462;52.148;7.940;2023-04-06T05:38:20;100917.94;;;1.63
76583;BMP280;65462;52.148;7.940;2023-04-06T05:40:45;100898.81;;;1.52
76583;BMP280;65462;52.148;7.940;2023-04-06T05:43:10;100900.69;;;1.57
76583;BMP280;65462;52.148;7.940;2023-04-06T05:45:36;100941.41;;;1.68
76583;BMP280;65462;52.148;7.940;2023-04-06T05:48:02;100937.47;;;1.66
76583;BMP280;65462;52.148;7.940;2023-04-06T05:50:27;100933.88;;;1.67
76583;BMP280;65462;52.148;7.940;2023-04-06T05:52:53;100908.75;;;1.55
76583;BMP280;65462;52.148;7.940;2023-04-06T05:55:19;100903.25;;;1.52
76583;BMP280;65462;52.148;7.940;2023-04-06T05:57:44;100887.59;;;1.47
76583;BMP280;65462;52.148;7.940;2023-04-06T06:00:10;100893.63;;;1.52
76583;BMP280;65462;52.148;7.940;2023-04-06T06:02:35;100923.16;;;1.63
76583;BMP280;65462;52.148;7.940;2023-04-06T06:05:01;100875.47;;;1.31
76583;BMP280;65462;52.148;7.940;2023-04-06T06:07:26;100899.56;;;1.48
76583;BMP280;65462;52.148;7.940;2023-04-06T06:09:52;100907.78;;;1.61
76583;BMP280;65462;52.148;7.940;2023-04-06T06:12:17;100929.25;;;1.74
76583;BMP280;65462;52.148;7.940;2023-04-06T06:14:42;100887.44;;;1.58
76583;BMP280;65462;52.148;7.940;2023-04-06T06:17:08;100900.22;;;1.60
76583;BMP280;65462;52.148;7.940;2023-04-06T06:19:33;100879.09;;;1.56
76583;BMP280;65462;52.148;7.940;2023-04-06T06:21:59;100898.81;;;1.74
76583;BMP280;65462;52.148;7.940;2023-04-06T06:24:27;100915.03;;;1.86
76583;BMP280;65462;52.148;7.940;2023-04-06T06:26:52;100923.22;;;2.00
76583;BMP280;65462;52.148;7.940;2023-04-06T06:29:18;100924.56;;;2.07
76583;BMP280;65462;52.148;7.940;2023-04-06T06:31:43;100884.09;;;1.95
76583;BMP280;65462;52.148;7.940;2023-04-06T06:34:08;100913.72;;;2.15
76583;BMP280;65462;52.148;7.940;2023-04-06T06:36:35;100896.97;;;2.06
76583;BMP280;65462;52.148;7.940;2023-04-06T06:39:00;100900.72;;;2.21
76583;BMP280;65462;52.148;7.940;2023-04-06T06:41:28;100931.63;;;2.49
76583;BMP280;65462;52.148;7.940;2023-04-06T06:43:53;100940.88;;;2.61
76583;BMP280;65462;52.148;7.940;2023-04-06T06:46:20;100934.69;;;2.78
76583;BMP280;65462;52.148;7.940;2023-04-06T06:48:45;100924.03;;;2.94
76583;BMP280;65462;52.148;7.940;2023-04-06T06:51:10;100924.13;;;3.14
76583;BMP280;65462;52.148;7.940;2023-04-06T06:53:36;100919.72;;;3.25
76583;BMP280;65462;52.148;7.940;2023-04-06T06:56:02;100906.97;;;3.54
76583;BMP280;65462;52.148;7.940;2023-04-06T06:58:27;100909.59;;;4.04
76583;BMP280;65462;52.148;7.940;2023-04-06T07:00:57;100913.63;;;4.56
76583;BMP280;65462;52.148;7.940;2023-04-06T07:03:22;100913.47;;;5.06
76583;BMP280;65462;52.148;7.940;2023-04-06T07:05:49;100934.66;;;5.48
76583;BMP280;65462;52.148;7.940;2023-04-06T07:08:21;100926.69;;;5.63
76583;BMP280;65462;52.148;7.940;2023-04-06T07:10:47;100904.22;;;5.52
76583;BMP280;65462;52.148;7.940;2023-04-06T07:13:13;100875.06;;;5.30
76583;BMP280;65462;52.148;7.940;2023-04-06T07:15:43;100904.63;;;5.36
76583;BMP280;65462;52.148;7.940;2023-04-06T07:18:08;100903.41;;;5.23
76583;BMP280;65462;52.148;7.940;2023-04-06T07:20:34;100912.25;;;5.27
76583;BMP280;65462;52.148;7.940;2023-04-06T07:22:59;100888.03;;;5.06
76583;BMP280;65462;52.148;7.940;2023-04-06T07:25:24;100878.13;;;5.03
76583;BMP280;65462;52.148;7.940;2023-04-06T07:27:50;100896.88;;;5.21
76583;BMP280;65462;52.148;7.940;2023-04-06T07:30:15;100901.84;;;5.17
76583;BMP280;65462;52.148;7.940;2023-04-06T07:32:40;100878.06;;;5.08
76583;BMP280;65462;52.148;7.940;2023-04-06T07:35:06;100879.38;;;5.11
76583;BMP280;65462;52.148;7.940;2023-04-06T07:37:32;100898.63;;;5.30
76583;BMP280;65462;52.148;7.940;2023-04-06T07:39:57;100894.97;;;5.31
76583;BMP280;65462;52.148;7.940;2023-04-06T07:42:22;100864.84;;;5.29
76583;BMP280;65462;52.148;7.940;2023-04-06T07:44:48;100910.22;;;5.58
76583;BMP280;65462;52.148;7.940;2023-04-06T07:47:13;100866.63;;;5.38
76583;BMP280;65462;52.148;7.940;2023-04-06T07:49:39;100896.19;;;5.72
76583;BMP280;65462;52.148;7.940;2023-04-06T07:52:05;100866.97;;;5.60
76583;BMP280;65462;52.148;7.940;2023-04-06T07:54:30;100895.53;;;5.86
76583;BMP280;65462;52.148;7.940;2023-04-06T07:56:55;100912.44;;;6.03
76583;BMP280;65462;52.148;7.940;2023-04-06T07:59:21;100885.50;;;5.98
76583;BMP280;65462;52.148;7.940;2023-04-06T08:01:46;100903.06;;;6.21
76583;BMP280;65462;52.148;7.940;2023-04-06T08:04:11;100893.09;;;6.23
76583;BMP280;65462;52.148;7.940;2023-04-06T08:06:37;100909.75;;;6.56
76583;BMP280;65462;52.148;7.940;2023-04-06T08:09:02;100903.03;;;6.68
76583;BMP280;65462;52.148;7.940;2023-04-06T08:11:28;100911.28;;;6.80
76583;BMP280;65462;52.148;7.940;2023-04-06T08:13:54;100869.19;;;6.67
76583;BMP280;65462;52.148;7.940;2023-04-06T08:16:20;100905.75;;;7.01
76583;BMP280;65462;52.148;7.940;2023-04-06T08:18:45;100904.06;;;7.10
76583;BMP280;65462;52.148;7.940;2023-04-06T08:21:11;100890.06;;;7.14
76583;BMP280;65462;52.148;7.940;2023-04-06T08:23:36;100914.06;;;7.40
76583;BMP280;65462;52.148;7.940;2023-04-06T08:26:01;100891.63;;;7.47
76583;BMP280;65462;52.148;7.940;2023-04-06T08:28:27;100880.25;;;7.52
76583;BMP280;65462;52.148;7.940;2023-04-06T08:30:52;100911.69;;;7.89
76583;BMP280;65462;52.148;7.940;2023-04-06T08:33:17;100877.09;;;7.82
76583;BMP280;65462;52.148;7.940;2023-04-06T08:35:43;100892.50;;;8.02
76583;BMP280;65462;52.148;7.940;2023-04-06T08:38:09;100860.25;;;7.97
76583;BMP280;65462;52.148;7.940;2023-04-06T08:40:38;100901.88;;;8.36
76583;BMP280;65462;52.148;7.940;2023-04-06T08:43:06;100893.84;;;8.41
76583;BMP280;65462;52.148;7.940;2023-04-06T08:45:34;100896.06;;;8.61
76583;BMP280;65462;52.148;7.940;2023-04-06T08:47:59;100875.25;;;8.59
76583;BMP280;65462;52.148;7.940;2023-04-06T08:50:28;100879.31;;;8.79
76583;BMP280;65462;52.148;7.940;2023-04-06T08:52:55;100848.91;;;8.73
76583;BMP280;65462;52.148;7.940;2023-04-06T08:55:21;100884.50;;;9.06
76583;BMP280;65462;52.148;7.940;2023-04-06T08:57:48;100864.19;;;9.07
76583;BMP280;65462;52.148;7.940;2023-04-06T09:00:14;100877.63;;;9.27
76583;BMP280;65462;52.148;7.940;2023-04-06T09:02:43;100901.34;;;9.49
76583;BMP280;65462;52.148;7.940;2023-04-06T09:05:09;100853.97;;;9.36
76583;BMP280;65462;52.148;7.940;2023-04-06T09:07:38;100897.31;;;9.83
76583;BMP280;65462;52.148;7.940;2023-04-06T09:10:04;100895.34;;;9.97
76583;BMP280;65462;52.148;7.940;2023-04-06T09:12:31;100880.94;;;10.03
76583;BMP280;65462;52.148;7.940;2023-04-06T09:14:58;100895.09;;;10.24
76583;BMP280;65462;52.148;7.940;2023-04-06T09:19:50;100878.69;;;10.36
76583;BMP280;65462;52.148;7.940;2023-04-06T09:22:15;100876.97;;;10.48
76583;BMP280;65462;52.148;7.940;2023-04-06T09:24:43;100874.63;;;10.64
76583;BMP280;65462;52.148;7.940;2023-04-06T09:27:09;100879.00;;;10.77
76583;BMP280;65462;52.148;7.940;2023-04-06T09:29:34;100880.53;;;10.86
76583;BMP280;65462;52.148;7.940;2023-04-06T09:32:09;100873.19;;;11.00
76583;BMP280;65462;52.148;7.940;2023-04-06T09:34:41;100875.78;;;11.18
76583;BMP280;65462;52.148;7.940;2023-04-06T09:37:14;100876.38;;;11.32
76583;BMP280;65462;52.148;7.940;2023-04-06T09:39:39;100859.41;;;11.33
76583;BMP280;65462;52.148;7.940;2023-04-06T09:42:05;100869.78;;;11.55
76583;BMP280;65462;52.148;7.940;2023-04-06T09:44:30;100850.41;;;11.63
76583;BMP280;65462;52.148;7.940;2023-04-06T09:46:56;100850.19;;;11.77
76583;BMP280;65462;52.148;7.940;2023-04-06T09:49:22;100864.88;;;11.95
76583;BMP280;65462;52.148;7.940;2023-04-06T09:51:59;100845.31;;;11.87
76583;BMP280;65462;52.148;7.940;2023-04-06T09:54:29;100864.66;;;12.08
76583;BMP280;65462;52.148;7.940;2023-04-06T10:02:18;100846.47;;;12.39
76583;BMP280;65462;52.148;7.940;2023-04-06T10:04:56;100851.66;;;12.69
76583;BMP280;65462;52.148;7.940;2023-04-06T10:07:23;100835.38;;;12.79
76583;BMP280;65462;52.148;7.940;2023-04-06T10:09:49;100834.28;;;12.92
76583;BMP280;65462;52.148;7.940;2023-04-06T10:12:15;100857.19;;;13.20
76583;BMP280;65462;52.148;7.940;2023-04-06T10:14:41;100856.00;;;13.30
76583;BMP280;65462;52.148;7.940;2023-04-06T10:17:07;100836.75;;;13.33
76583;BMP280;65462;52.148;7.940;2023-04-06T10:20:04;100823.69;;;13.40
76583;BMP280;65462;52.148;7.940;2023-04-06T10:22:43;100860.22;;;13.67
76583;BMP280;65462;52.148;7.940;2023-04-06T10:25:10;100852.53;;;13.78
76583;BMP280;65462;52.148;7.940;2023-04-06T10:27:35;100831.19;;;13.74
76583;BMP280;65462;52.148;7.940;2023-04-06T10:30:03;100830.44;;;13.74
76583;BMP280;65462;52.148;7.940;2023-04-06T10:32:36;100836.47;;;13.98
76583;BMP280;65462;52.148;7.940;2023-04-06T10:35:09;100848.56;;;14.24
76583;BMP280;65462;52.148;7.940;2023-04-06T10:37:54;100831.91;;;14.27
76583;BMP280;65462;52.148;7.940;2023-04-06T10:40:25;100829.38;;;14.30
76583;BMP280;65462;52.148;7.940;2023-04-06T10:42:52;100831.28;;;14.45
76583;BMP280;65462;52.148;7.940;2023-04-06T10:45:19;100820.31;;;14.47
76583;BMP280;65462;52.148;7.940;2023-04-06T10:47:45;100842.81;;;14.65
76583;BMP280;65462;52.148;7.940;2023-04-06T10:50:14;100843.25;;;14.67
76583;BMP280;65462;52.148;7.940;2023-04-06T10:52:40;100841.22;;;14.76
76583;BMP280;65462;52.148;7.940;2023-04-06T10:55:06;100826.34;;;14.75
76583;BMP280;65462;52.148;7.940;2023-04-06T10:57:33;100816.56;;;14.79
76583;BMP280;65462;52.148;7.940;2023-04-06T10:59:59;100816.06;;;14.89
76583;BMP280;65462;52.148;7.940;2023-04-06T11:02:24;100835.56;;;15.09
76583;BMP280;65462;52.148;7.940;2023-04-06T11:04:58;100832.69;;;15.17
76583;BMP280;65462;52.148;7.940;2023-04-06T11:07:25;100822.31;;;15.12
76583;BMP280;65462;52.148;7.940;2023-04-06T11:09:51;100814.19;;;15.05
76583;BMP280;65462;52.148;7.940;2023-04-06T11:12:27;100808.16;;;15.08
76583;BMP280;65462;52.148;7.940;2023-04-06T11:14:57;100811.66;;;15.12
76583;BMP280;65462;52.148;7.940;2023-04-06T11:17:34;100803.25;;;15.10
76583;BMP280;65462;52.148;7.940;2023-04-06T11:20:01;100823.81;;;15.29
76583;BMP280;65462;52.148;7.940;2023-04-06T11:22:28;100797.06;;;15.22
76583;BMP280;65462;52.148;7.940;2023-04-06T11:25:04;100805.34;;;15.36
76583;BMP280;65462;52.148;7.940;2023-04-06T11:27:30;100796.25;;;15.37
76583;BMP280;65462;52.148;7.940;2023-04-06T11:29:57;100812.19;;;15.52
76583;BMP280;65462;52.148;7.940;2023-04-06T11:32:23;100790.38;;;15.47
76583;BMP280;65462;52.148;7.940;2023-04-06T11:34:49;100794.00;;;15.58
76583;BMP280;65462;52.148;7.940;2023-04-06T11:37:14;100788.06;;;15.64
76583;BMP280;65462;52.148;7.940;2023-04-06T11:39:48;100788.91;;;15.68
76583;BMP280;65462;52.148;7.940;2023-04-06T11:42:23;100809.97;;;15.93
76583;BMP280;65462;52.148;7.940;2023-04-06T11:44:51;100798.44;;;15.89
76583;BMP280;65462;52.148;7.940;2023-04-06T11:47:18;100792.34;;;15.88
76583;BMP280;65462;52.148;7.940;2023-04-06T11:49:44;100778.47;;;15.79
76583;BMP280;65462;52.148;7.940;2023-04-06T11:52:26;100773.00;;;15.72
76583;BMP280;65462;52.148;7.940;2023-04-06T11:54:53;100800.00;;;15.90
76583;BMP280;65462;52.148;7.940;2023-04-06T11:57:21;100800.81;;;15.94
76583;BMP280;65462;52.148;7.940;2023-04-06T11:59:46;100770.91;;;15.81
76583;BMP280;65462;52.148;7.940;2023-04-06T12:02:12;100785.59;;;15.94
76583;BMP280;65462;52.148;7.940;2023-04-06T12:04:37;100789.19;;;16.02
76583;BMP280;65462;52.148;7.940;2023-04-06T12:07:04;100772.22;;;15.91
76583;BMP280;65462;52.148;7.940;2023-04-06T12:09:29;100792.88;;;16.16
76583;BMP280;65462;52.148;7.940;2023-04-06T12:11:55;100764.84;;;16.03
76583;BMP280;65462;52.148;7.940;2023-04-06T12:14:21;100796.06;;;16.25
76583;BMP280;65462;52.148;7.940;2023-04-06T12:16:46;100790.09;;;16.32
76583;BMP280;65462;52.148;7.940;2023-04-06T12:19:12;100785.53;;;16.32
76583;BMP280;65462;52.148;7.940;2023-04-06T12:21:39;100774.19;;;16.35
76583;BMP280;65462;52.148;7.940;2023-04-06T12:24:05;100763.50;;;16.35
76583;BMP280;65462;52.148;7.940;2023-04-06T12:26:31;100759.06;;;16.43
76583;BMP280;65462;52.148;7.940;2023-04-06T12:28:57;100760.03;;;16.54
76583;BMP280;65462;52.148;7.940;2023-04-06T12:31:28;100779.06;;;16.79
76583;BMP280;65462;52.148;7.940;2023-04-06T12:33:53;100786.09;;;16.90
76583;BMP280;65462;52.148;7.940;2023-04-06T12:36:19;100771.72;;;16.98
76583;BMP280;65462;52.148;7.940;2023-04-06T12:38:47;100767.63;;;17.04
76583;BMP280;65462;52.148;7.940;2023-04-06T12:41:12;100773.47;;;17.13
76583;BMP280;65462;52.148;7.940;2023-04-06T12:43:39;100782.41;;;17.24
76583;BMP280;65462;52.148;7.940;2023-04-06T12:46:05;100759.63;;;17.04
76583;BMP280;65462;52.148;7.940;2023-04-06T12:48:31;100757.28;;;17.03
76583;BMP280;65462;52.148;7.940;2023-04-06T12:50:58;100766.63;;;17.16
76583;BMP280;65462;52.148;7.940;2023-04-06T12:53:23;100786.16;;;17.20
76583;BMP280;65462;52.148;7.940;2023-04-06T12:55:48;100750.72;;;16.97
76583;BMP280;65462;52.148;7.940;2023-04-06T12:58:14;100748.13;;;17.00
76583;BMP280;65462;52.148;7.940;2023-04-06T13:00:40;100729.75;;;16.95
76583;BMP280;65462;52.148;7.940;2023-04-06T13:03:05;100750.53;;;17.09
76583;BMP280;65462;52.148;7.940;2023-04-06T13:05:31;100745.09;;;17.02
76583;BMP280;65462;52.148;7.940;2023-04-06T13:07:56;100767.91;;;17.25
76583;BMP280;65462;52.148;7.940;2023-04-06T13:10:22;100744.41;;;17.08
76583;BMP280;65462;52.148;7.940;2023-04-06T13:12:47;100764.44;;;17.21
76583;BMP280;65462;52.148;7.940;2023-04-06T13:15:13;100757.13;;;17.18
76583;BMP280;65462;52.148;7.940;2023-04-06T13:17:38;100750.25;;;17.17
76583;BMP280;65462;52.148;7.940;2023-04-06T13:20:04;100758.13;;;17.36
76583;BMP280;65462;52.148;7.940;2023-04-06T13:22:30;100755.09;;;17.41
76583;BMP280;65462;52.148;7.940;2023-04-06T13:24:58;100753.97;;;17.39
76583;BMP280;65462;52.148;7.940;2023-04-06T13:27:23;100738.94;;;17.27
76583;BMP280;65462;52.148;7.940;2023-04-06T13:29:49;100723.91;;;17.16
76583;BMP280;65462;52.148;7.940;2023-04-06T13:32:14;100730.03;;;17.16
76583;BMP280;65462;52.148;7.940;2023-04-06T13:34:40;100739.94;;;17.16
76583;BMP280;65462;52.148;7.940;2023-04-06T13:37:10;100759.47;;;17.23
76583;BMP280;65462;52.148;7.940;2023-04-06T13:39:36;100730.25;;;17.04
76583;BMP280;65462;52.148;7.940;2023-04-06T13:42:01;100722.13;;;16.97
76583;BMP280;65462;52.148;7.940;2023-04-06T13:44:28;100751.66;;;17.08
76583;BMP280;65462;52.148;7.940;2023-04-06T13:46:53;100734.66;;;16.93
76583;BMP280;65462;52.148;7.940;2023-04-06T13:49:18;100716.81;;;16.71
76583;BMP280;65462;52.148;7.940;2023-04-06T13:51:44;100722.50;;;16.70
76583;BMP280;65462;52.148;7.940;2023-04-06T13:54:09;100722.91;;;16.72
76583;BMP280;65462;52.148;7.940;2023-04-06T13:56:34;100722.34;;;16.59
76583;BMP280;65462;52.148;7.940;2023-04-06T13:59:00;100714.50;;;16.43
76583;BMP280;65462;52.148;7.940;2023-04-06T14:01:25;100746.25;;;16.52
76583;BMP280;65462;52.148;7.940;2023-04-06T14:03:51;100714.50;;;16.21
76583;BMP280;65462;52.148;7.940;2023-04-06T14:06:17;100744.06;;;16.35